createdAt,value
2022-10-25T00:00:18.931Z,1.10
2022-10-25T00:02:45.506Z,3.90
2022-10-25T00:05:15.373Z,1.90
2022-10-25T00:07:42.234Z,1.80
2022-10-25T00:10:09.811Z,3.77
2022-10-25T00:12:42.632Z,1.30
2022-10-25T00:15:10.131Z,1.70
2022-10-25T00:17:36.686Z,0.97
2022-10-25T00:20:03.674Z,1.30
2022-10-25T00:22:30.252Z,7.50
2022-10-25T00:24:57.495Z,1.10
2022-10-25T00:27:24.209Z,1.30
2022-10-25T00:29:53.063Z,1.47
2022-10-25T00:32:20.230Z,8.63
2022-10-25T00:34:46.892Z,1.23
2022-10-25T00:37:13.480Z,1.20
2022-10-25T00:39:40.348Z,1.40
2022-10-25T00:42:09.304Z,2.33
2022-10-25T00:44:35.989Z,1.70
2022-10-25T00:47:20.958Z,1.73
2022-10-25T00:50:03.128Z,1.60
2022-10-25T00:52:35.670Z,1.60
2022-10-25T00:55:05.288Z,1.20
2022-10-25T00:57:40.758Z,1.20
2022-10-25T01:00:08.294Z,1.50
2022-10-25T01:02:35.140Z,2.17
2022-10-25T01:05:02.826Z,1.67
2022-10-25T01:07:29.438Z,5.10
2022-10-25T01:09:57.038Z,2.23
2022-10-25T01:12:23.603Z,1.23
2022-10-25T01:14:51.422Z,1.10
2022-10-25T01:17:40.041Z,2.20
2022-10-25T01:20:50.400Z,1.00
2022-10-25T01:23:33.461Z,1.43
2022-10-25T01:26:02.961Z,1.07
2022-10-25T01:28:37.301Z,1.40
2022-10-25T01:31:17.215Z,1.20
2022-10-25T01:34:13.508Z,1.10
2022-10-25T01:37:11.953Z,2.57
2022-10-25T01:39:48.625Z,1.10
2022-10-25T01:42:38.829Z,1.47
2022-10-25T01:45:19.395Z,1.30
2022-10-25T01:48:29.730Z,0.90
2022-10-25T01:51:06.306Z,1.00
2022-10-25T01:53:36.692Z,2.10
2022-10-25T01:56:05.954Z,2.20
2022-10-25T01:58:43.146Z,2.90
2022-10-25T02:01:13.000Z,1.63
2022-10-25T02:03:55.936Z,1.83
2022-10-25T02:06:52.146Z,1.10
2022-10-25T02:09:18.650Z,1.97
2022-10-25T02:11:45.326Z,1.70
2022-10-25T02:14:20.916Z,1.10
2022-10-25T02:16:58.702Z,1.23
2022-10-25T02:19:38.298Z,3.00
2022-10-25T02:22:09.254Z,2.63
2022-10-25T02:24:37.765Z,2.10
2022-10-25T02:27:06.406Z,1.40
2022-10-25T02:29:35.186Z,1.80
2022-10-25T02:32:04.191Z,1.23
2022-10-25T02:34:31.680Z,1.00
2022-10-25T02:36:58.526Z,1.70
2022-10-25T02:39:30.587Z,2.27
2022-10-25T02:41:58.209Z,1.33
2022-10-25T02:44:24.752Z,1.47
2022-10-25T02:46:51.277Z,1.43
2022-10-25T02:49:17.838Z,2.90
2022-10-25T02:51:44.405Z,1.97
2022-10-25T02:54:10.970Z,1.73
2022-10-25T02:56:38.351Z,1.30
2022-10-25T02:59:04.881Z,1.20
2022-10-25T03:01:31.725Z,4.10
2022-10-25T03:03:58.375Z,1.37
2022-10-25T03:06:24.988Z,1.97
2022-10-25T03:08:51.506Z,3.00
2022-10-25T03:11:18.114Z,1.27
2022-10-25T03:13:44.704Z,0.90
2022-10-25T03:16:11.325Z,1.33
2022-10-25T03:18:37.880Z,1.53
2022-10-25T03:21:04.985Z,1.63
2022-10-25T03:23:31.860Z,1.27
2022-10-25T03:26:00.545Z,1.83
2022-10-25T03:28:29.818Z,1.30
2022-10-25T03:30:57.633Z,1.73
2022-10-25T03:33:25.619Z,3.00
2022-10-25T03:35:53.428Z,1.27
2022-10-25T03:38:20.145Z,2.20
2022-10-25T03:40:46.796Z,1.00
2022-10-25T03:43:13.440Z,1.03
2022-10-25T03:45:40.028Z,0.90
2022-10-25T03:48:06.752Z,3.83
2022-10-25T03:50:33.394Z,1.90
2022-10-25T03:53:00.303Z,1.27
2022-10-25T03:55:27.166Z,1.03
2022-10-25T03:57:53.653Z,1.13
2022-10-25T04:00:20.281Z,2.30
2022-10-25T04:02:46.937Z,1.57
2022-10-25T04:05:13.537Z,1.47
2022-10-25T04:07:40.074Z,1.43
2022-10-25T04:10:06.859Z,1.23
2022-10-25T04:12:33.414Z,2.37
2022-10-25T04:15:00.017Z,1.83
2022-10-25T04:17:26.655Z,1.10
2022-10-25T04:19:53.222Z,2.07
2022-10-25T04:22:19.757Z,2.43
2022-10-25T04:24:46.280Z,2.20
2022-10-25T04:27:12.857Z,1.00
2022-10-25T04:29:39.706Z,1.20
2022-10-25T04:32:06.380Z,0.97
2022-10-25T04:34:32.944Z,1.43
2022-10-25T04:36:59.485Z,1.33
2022-10-25T04:39:26.409Z,2.00
2022-10-25T04:41:52.940Z,1.53
2022-10-25T04:44:19.549Z,2.33
2022-10-25T04:46:48.651Z,1.27
2022-10-25T04:49:16.180Z,1.63
2022-10-25T04:51:42.818Z,2.30
2022-10-25T04:54:11.441Z,1.43
2022-10-25T04:56:37.985Z,1.43
2022-10-25T04:59:04.536Z,1.97
2022-10-25T05:01:31.204Z,0.90
2022-10-25T05:03:57.909Z,2.97
2022-10-25T05:06:26.727Z,1.73
2022-10-25T05:08:54.335Z,1.63
2022-10-25T05:11:24.105Z,2.00
2022-10-25T05:13:51.218Z,1.67
2022-10-25T05:16:24.305Z,0.93
2022-10-25T05:18:54.255Z,4.70
2022-10-25T05:21:22.886Z,2.43
2022-10-25T05:23:49.515Z,0.80
2022-10-25T05:26:21.070Z,3.70
2022-10-25T05:28:49.371Z,1.93
2022-10-25T05:31:21.900Z,1.30
2022-10-25T05:33:50.747Z,1.80
2022-10-25T05:36:17.798Z,1.70
2022-10-25T05:38:44.858Z,1.20
2022-10-25T05:41:13.763Z,1.90
2022-10-25T05:43:41.051Z,1.87
2022-10-25T05:46:10.871Z,1.50
2022-10-25T05:48:38.616Z,2.73
2022-10-25T05:51:35.663Z,1.17
2022-10-25T05:54:06.395Z,3.37
2022-10-25T05:56:33.703Z,17.33
2022-10-25T05:59:09.161Z,1.47
2022-10-25T06:01:38.210Z,1.50
2022-10-25T06:04:05.502Z,1.30
2022-10-25T06:06:32.120Z,1.13
2022-10-25T06:09:00.630Z,1.53
2022-10-25T06:11:28.365Z,2.13
2022-10-25T06:13:55.087Z,2.63
2022-10-25T06:16:22.165Z,1.70
2022-10-25T06:18:49.186Z,1.40
2022-10-25T06:21:18.680Z,3.70
2022-10-25T06:23:46.180Z,1.10
2022-10-25T06:26:15.898Z,2.93
2022-10-25T06:28:43.230Z,1.20
2022-10-25T06:31:12.209Z,1.93
2022-10-25T06:33:39.583Z,3.20
2022-10-25T06:36:10.454Z,1.60
2022-10-25T06:38:36.972Z,3.88
2022-10-25T06:41:09.906Z,2.23
2022-10-25T06:43:36.495Z,2.37
2022-10-25T06:46:13.085Z,3.17
2022-10-25T06:48:39.905Z,1.83
2022-10-25T06:51:09.786Z,1.50
2022-10-25T06:53:40.307Z,2.00
2022-10-25T06:56:11.979Z,2.20
2022-10-25T06:58:40.906Z,6.47
2022-10-25T07:01:10.641Z,1.93
2022-10-25T07:03:37.834Z,1.73
2022-10-25T07:06:13.410Z,2.70
2022-10-25T07:08:43.200Z,4.90
2022-10-25T07:11:19.868Z,2.17
2022-10-25T07:13:46.884Z,2.00
2022-10-25T07:16:15.921Z,2.30
2022-10-25T07:18:43.226Z,2.47
2022-10-25T07:21:21.644Z,2.47
2022-10-25T07:23:50.239Z,2.60
2022-10-25T07:26:35.077Z,2.30
2022-10-25T07:29:03.072Z,2.50
2022-10-25T07:31:40.787Z,2.30
2022-10-25T07:34:07.917Z,3.57
2022-10-25T07:36:34.746Z,2.20
2022-10-25T07:39:01.608Z,2.20
2022-10-25T07:41:28.282Z,2.50
2022-10-25T07:43:55.722Z,4.60
2022-10-25T07:46:22.514Z,2.67
2022-10-25T07:48:49.242Z,2.43
2022-10-25T07:51:16.884Z,3.90
2022-10-25T07:53:45.172Z,2.27
2022-10-25T07:56:22.111Z,3.27
2022-10-25T07:58:50.150Z,1.77
2022-10-25T08:01:25.719Z,3.47
2022-10-25T08:03:53.524Z,7.60
2022-10-25T08:06:24.355Z,2.60
2022-10-25T08:08:50.984Z,3.43
2022-10-25T08:11:18.102Z,1.90
2022-10-25T08:13:44.713Z,1.47
2022-10-25T08:16:11.317Z,1.57
2022-10-25T08:18:37.903Z,3.00
2022-10-25T08:21:04.842Z,3.47
2022-10-25T08:23:32.954Z,3.77
2022-10-25T08:26:00.907Z,1.93
2022-10-25T08:28:28.149Z,1.67
2022-10-25T08:30:55.531Z,3.00
2022-10-25T08:33:23.175Z,1.90
2022-10-25T08:35:49.738Z,2.50
2022-10-25T08:38:16.391Z,3.47
2022-10-25T08:40:48.161Z,2.07
2022-10-25T08:43:52.429Z,3.07
2022-10-25T08:46:27.529Z,1.87
2022-10-25T08:49:04.495Z,2.37
2022-10-25T08:51:37.752Z,1.50
2022-10-25T08:54:36.869Z,2.30
2022-10-25T08:57:23.295Z,1.37
2022-10-25T09:00:17.394Z,2.80
2022-10-25T09:02:51.046Z,2.97
2022-10-25T09:05:29.801Z,3.10
2022-10-25T09:08:02.289Z,3.70
2022-10-25T09:10:53.196Z,2.80
2022-10-25T09:13:41.043Z,2.70
2022-10-25T09:16:16.346Z,4.93
2022-10-25T09:18:45.995Z,1.60
2022-10-25T09:21:23.096Z,2.37
2022-10-25T09:24:09.194Z,3.20
2022-10-25T09:26:44.304Z,2.40
2022-10-25T09:29:18.083Z,2.63
2022-10-25T09:31:50.953Z,5.10
2022-10-25T09:34:20.332Z,3.73
2022-10-25T09:36:49.031Z,1.30
2022-10-25T09:39:21.253Z,1.83
2022-10-25T09:41:52.694Z,1.93
2022-10-25T09:44:31.493Z,1.17
2022-10-25T09:47:00.016Z,2.27
2022-10-25T09:49:34.939Z,1.70
2022-10-25T09:52:39.392Z,1.87
2022-10-25T09:55:11.917Z,1.20
2022-10-25T09:57:38.755Z,1.50
2022-10-25T10:00:05.963Z,1.97
2022-10-25T10:02:39.504Z,2.30
2022-10-25T10:05:06.292Z,1.60
2022-10-25T10:07:37.338Z,4.60
2022-10-25T10:10:08.954Z,1.57
2022-10-25T10:12:45.972Z,1.40
2022-10-25T10:15:42.194Z,2.37
2022-10-25T10:18:30.914Z,1.57
2022-10-25T10:21:03.297Z,2.17
2022-10-25T10:23:51.978Z,3.27
2022-10-25T10:26:31.706Z,1.10
2022-10-25T10:29:16.718Z,1.67
2022-10-25T10:31:47.800Z,1.90
2022-10-25T10:34:25.328Z,1.60
2022-10-25T10:37:25.144Z,2.03
2022-10-25T10:39:56.975Z,1.83
2022-10-25T10:42:35.515Z,3.93
2022-10-25T10:45:08.266Z,2.67
2022-10-25T10:47:34.960Z,2.20
2022-10-25T10:50:10.021Z,3.37
2022-10-25T10:52:41.620Z,4.20
2022-10-25T10:55:19.738Z,4.93
2022-10-25T10:57:46.481Z,1.17
2022-10-25T11:00:32.700Z,2.23
2022-10-25T11:02:59.357Z,3.50
2022-10-25T11:05:31.856Z,3.17
2022-10-25T11:07:59.534Z,4.00
2022-10-25T11:10:36.441Z,2.70
2022-10-25T11:13:12.224Z,1.27
2022-10-25T11:19:29.194Z,1.00
2022-10-25T11:22:20.472Z,1.53
2022-10-25T11:25:05.628Z,1.50
2022-10-25T11:27:35.003Z,2.40
2022-10-25T11:30:45.038Z,1.57
2022-10-25T11:33:44.231Z,2.00
2022-10-25T11:36:16.688Z,2.37
2022-10-25T11:38:52.300Z,1.70
2022-10-25T11:41:24.911Z,3.77
2022-10-25T11:44:20.707Z,1.53
2022-10-25T11:46:47.240Z,5.33
2022-10-25T11:49:41.647Z,2.37
2022-10-25T11:52:56.020Z,1.93
2022-10-25T11:55:53.429Z,2.40
2022-10-25T11:58:26.021Z,2.20
2022-10-25T12:01:24.964Z,1.53
2022-10-25T12:04:13.362Z,1.47
2022-10-25T12:07:08.170Z,2.50
2022-10-25T12:09:50.285Z,2.67
2022-10-25T12:12:24.767Z,1.30
2022-10-25T12:14:58.165Z,5.13
2022-10-25T12:17:28.746Z,2.40
2022-10-25T12:19:58.236Z,2.80
2022-10-25T12:22:30.759Z,2.50
2022-10-25T12:25:29.661Z,2.23
2022-10-25T12:28:06.589Z,1.33
2022-10-25T12:30:34.652Z,1.20
2022-10-25T12:33:20.345Z,1.37
2022-10-25T12:35:54.128Z,1.73
2022-10-25T12:38:33.018Z,2.20
2022-10-25T12:41:05.509Z,2.07
2022-10-25T12:43:56.342Z,1.77
2022-10-25T12:46:39.453Z,2.43
2022-10-25T12:49:34.837Z,3.60
2022-10-25T12:52:21.854Z,2.20
2022-10-25T12:55:26.294Z,1.50
2022-10-25T12:58:28.141Z,2.60
2022-10-25T13:01:17.483Z,3.43
2022-10-25T13:04:02.713Z,3.43
2022-10-25T13:06:32.002Z,3.83
2022-10-25T13:09:16.594Z,1.57
2022-10-25T13:11:59.382Z,1.00
2022-10-25T13:14:43.351Z,1.63
2022-10-25T13:17:18.710Z,2.33
2022-10-25T13:19:54.685Z,2.23
2022-10-25T13:22:27.904Z,2.40
2022-10-25T13:24:55.683Z,1.47
2022-10-25T13:27:23.466Z,2.40
2022-10-25T13:30:08.460Z,1.30
2022-10-25T13:32:36.300Z,3.90
2022-10-25T13:35:22.997Z,1.57
2022-10-25T13:37:54.262Z,1.30
2022-10-25T13:40:22.644Z,1.80
2022-10-25T13:42:57.923Z,1.40
2022-10-25T13:45:31.363Z,1.33
2022-10-25T13:48:10.010Z,1.50
2022-10-25T13:50:49.313Z,1.10
2022-10-25T13:53:42.191Z,1.33
2022-10-25T13:56:24.046Z,2.27
2022-10-25T13:58:52.970Z,2.70
2022-10-25T14:01:20.615Z,1.00
2022-10-25T14:03:53.124Z,1.30
2022-10-25T14:06:24.186Z,3.40
2022-10-25T14:09:00.895Z,1.93
2022-10-25T14:11:35.330Z,1.40
2022-10-25T14:14:11.014Z,1.77
2022-10-25T14:16:53.026Z,1.30
2022-10-25T14:19:43.386Z,1.57
2022-10-25T14:22:36.420Z,1.23
2022-10-25T14:25:18.789Z,2.97
2022-10-25T14:27:45.457Z,1.20
2022-10-25T14:30:28.706Z,4.93
2022-10-25T14:32:58.354Z,1.53
2022-10-25T14:35:30.798Z,3.97
2022-10-25T14:37:57.523Z,1.77
2022-10-25T14:40:28.906Z,1.70
2022-10-25T14:42:55.863Z,1.47
2022-10-25T14:45:25.548Z,1.10
2022-10-25T14:47:53.102Z,1.03
2022-10-25T14:50:25.826Z,0.80
2022-10-25T14:52:54.221Z,4.07
2022-10-25T14:55:29.381Z,1.43
2022-10-25T14:57:57.790Z,1.10
2022-10-25T15:00:24.578Z,1.30
2022-10-25T15:03:01.378Z,1.00
2022-10-25T15:05:28.242Z,2.63
2022-10-25T15:07:57.092Z,0.80
2022-10-25T15:10:43.466Z,1.40
2022-10-25T15:13:23.025Z,1.77
2022-10-25T15:15:51.542Z,1.10
2022-10-25T15:18:27.042Z,1.57
2022-10-25T15:21:11.440Z,0.87
2022-10-25T15:23:40.230Z,1.00
2022-10-25T15:26:29.333Z,1.27
2022-10-25T15:29:01.683Z,1.70
2022-10-25T15:31:31.078Z,2.73
2022-10-25T15:34:02.745Z,3.53
2022-10-25T15:36:31.371Z,1.43
2022-10-25T15:39:12.862Z,1.07
2022-10-25T15:41:42.353Z,1.30
2022-10-25T15:44:08.882Z,1.87
2022-10-25T15:46:35.486Z,0.90
2022-10-25T15:49:06.596Z,1.10
2022-10-25T15:51:36.113Z,2.80
2022-10-25T15:54:02.700Z,2.03
2022-10-25T15:56:29.342Z,1.10
2022-10-25T15:58:56.558Z,2.87
2022-10-25T16:01:23.222Z,1.83
2022-10-25T16:03:49.945Z,1.10
2022-10-25T16:06:19.439Z,1.37
2022-10-25T16:08:46.186Z,1.03
2022-10-25T16:11:20.061Z,2.50
2022-10-25T16:13:49.991Z,1.43
2022-10-25T16:16:39.935Z,3.10
2022-10-25T16:19:14.296Z,1.40
2022-10-25T16:21:40.949Z,2.23
2022-10-25T16:24:07.616Z,1.67
2022-10-25T16:26:46.763Z,1.20
2022-10-25T16:29:21.774Z,1.20
2022-10-25T16:31:48.655Z,1.30
2022-10-25T16:34:19.456Z,3.37
2022-10-25T16:36:47.372Z,3.80
2022-10-25T16:39:14.639Z,6.70
2022-10-25T16:41:44.083Z,2.30
2022-10-25T16:44:16.580Z,2.00
2022-10-25T16:46:43.374Z,2.13
2022-10-25T16:49:10.535Z,2.47
2022-10-25T16:51:39.670Z,7.27
2022-10-25T16:54:07.132Z,3.40
2022-10-25T16:56:33.766Z,2.33
2022-10-25T16:59:00.730Z,3.03
2022-10-25T17:01:31.297Z,4.87
2022-10-25T17:03:57.961Z,4.07
2022-10-25T17:06:41.631Z,4.43
2022-10-25T17:09:09.206Z,2.30
2022-10-25T17:11:36.287Z,3.57
2022-10-25T17:14:03.289Z,3.20
2022-10-25T17:16:29.949Z,2.27
2022-10-25T17:18:57.284Z,4.30
2022-10-25T17:21:24.015Z,2.73
2022-10-25T17:23:50.595Z,3.30
2022-10-25T17:26:17.659Z,2.50
2022-10-25T17:28:44.582Z,7.40
2022-10-25T17:31:13.616Z,1.90
2022-10-25T17:33:41.411Z,1.97
2022-10-25T17:36:16.652Z,3.23
2022-10-25T17:38:43.947Z,3.10
2022-10-25T17:41:11.334Z,3.23
2022-10-25T17:43:39.661Z,1.87
2022-10-25T17:46:09.659Z,2.63
2022-10-25T17:48:36.402Z,1.60
2022-10-25T17:51:04.392Z,5.60
2022-10-25T17:53:31.744Z,3.57
2022-10-25T17:56:09.212Z,5.60
2022-10-25T17:58:35.769Z,2.80
2022-10-25T18:01:06.181Z,6.63
2022-10-25T18:03:33.321Z,1.70
2022-10-25T18:06:01.832Z,4.20
2022-10-25T18:08:28.599Z,2.47
2022-10-25T18:10:55.442Z,3.80
2022-10-25T18:13:23.897Z,1.77
2022-10-25T18:15:51.797Z,4.17
2022-10-25T18:18:19.430Z,2.17
2022-10-25T18:20:51.327Z,4.10
2022-10-25T18:23:18.406Z,4.00
2022-10-25T18:25:52.520Z,2.30
2022-10-25T18:28:19.085Z,3.50
2022-10-25T18:30:45.890Z,2.30
2022-10-25T18:33:14.750Z,2.87
2022-10-25T18:35:41.985Z,4.00
2022-10-25T18:38:08.668Z,2.23
2022-10-25T18:40:35.957Z,3.13
2022-10-25T18:43:02.517Z,6.33
2022-10-25T18:45:29.133Z,2.60
2022-10-25T18:47:55.832Z,3.20
2022-10-25T18:50:22.877Z,2.57
2022-10-25T18:52:49.584Z,2.10
2022-10-25T18:55:16.335Z,3.80
2022-10-25T18:57:42.925Z,4.17
2022-10-25T19:00:10.074Z,6.17
2022-10-25T19:02:37.922Z,4.27
2022-10-25T19:05:05.013Z,3.80
2022-10-25T19:07:31.669Z,3.90
2022-10-25T19:09:58.419Z,5.80
2022-10-25T19:12:24.936Z,4.33
2022-10-25T19:14:51.492Z,4.20
2022-10-25T19:17:18.029Z,2.27
2022-10-25T19:19:44.650Z,2.47
2022-10-25T19:22:11.291Z,3.93
2022-10-25T19:24:38.349Z,4.17
2022-10-25T19:27:05.028Z,6.20
2022-10-25T19:29:31.660Z,5.60
2022-10-25T19:31:58.189Z,4.17
2022-10-25T19:34:24.788Z,2.27
2022-10-25T19:36:52.147Z,7.00
2022-10-25T19:39:18.726Z,5.33
2022-10-25T19:41:45.310Z,9.10
2022-10-25T19:44:11.840Z,14.10
2022-10-25T19:46:38.552Z,22.47
2022-10-25T19:49:05.162Z,22.37
2022-10-25T19:51:31.966Z,32.50
2022-10-25T19:53:58.679Z,25.60
2022-10-25T19:56:25.332Z,23.27
2022-10-25T19:58:51.982Z,28.60
2022-10-25T20:01:24.767Z,24.30
2022-10-25T20:03:54.554Z,18.37
2022-10-25T20:06:24.845Z,20.30
2022-10-25T20:08:52.602Z,14.83
2022-10-25T20:11:20.213Z,10.97
2022-10-25T20:13:46.936Z,10.57
2022-10-25T20:16:14.222Z,9.60
2022-10-25T20:18:41.955Z,7.87
2022-10-25T20:21:11.282Z,14.33
2022-10-25T20:23:38.851Z,7.97
2022-10-25T20:26:36.529Z,6.43
2022-10-25T20:29:15.672Z,5.33
2022-10-25T20:31:45.212Z,6.43
2022-10-25T20:34:12.951Z,9.77
2022-10-25T20:36:39.617Z,6.63
2022-10-25T20:39:06.175Z,9.90
2022-10-25T20:41:34.931Z,9.70
2022-10-25T20:44:05.739Z,5.00
2022-10-25T20:46:39.743Z,8.07
2022-10-25T20:49:30.324Z,5.90
2022-10-25T20:52:09.275Z,8.40
2022-10-25T20:54:36.820Z,5.47
2022-10-25T20:57:03.524Z,8.50
2022-10-25T20:59:30.256Z,6.03
2022-10-25T21:01:57.316Z,7.40
2022-10-25T21:04:30.611Z,5.97
2022-10-25T21:07:19.285Z,4.73
2022-10-25T21:09:49.414Z,6.23
2022-10-25T21:12:16.427Z,5.57
2022-10-25T21:14:42.943Z,4.80
2022-10-25T21:17:09.541Z,2.83
2022-10-25T21:19:36.162Z,5.20
2022-10-25T21:22:02.818Z,4.80
2022-10-25T21:24:29.357Z,5.63
2022-10-25T21:26:55.951Z,5.50
2022-10-25T21:29:22.516Z,4.73
2022-10-25T21:31:49.357Z,5.40
2022-10-25T21:36:42.523Z,4.00
2022-10-25T21:39:09.288Z,3.93
2022-10-25T21:41:35.887Z,4.13
2022-10-25T21:44:02.615Z,2.90
2022-10-25T21:46:29.264Z,2.97
2022-10-25T21:48:55.975Z,4.53
2022-10-25T21:51:26.680Z,3.27
2022-10-25T21:53:55.091Z,2.20
2022-10-25T21:56:31.219Z,1.70
2022-10-25T21:58:59.141Z,2.50
2022-10-25T22:01:30.775Z,2.83
2022-10-25T22:03:58.031Z,5.10
2022-10-25T22:06:26.149Z,3.47
2022-10-25T22:08:55.390Z,7.87
2022-10-25T22:11:25.489Z,2.30
2022-10-25T22:14:03.461Z,2.90
2022-10-25T22:16:31.257Z,5.80
2022-10-25T22:19:05.627Z,3.77
2022-10-25T22:21:36.234Z,6.57
2022-10-25T22:24:04.485Z,4.20
2022-10-25T22:26:31.045Z,3.67
2022-10-25T22:28:59.453Z,2.27
2022-10-25T22:31:30.077Z,2.30
2022-10-25T22:34:02.059Z,3.03
2022-10-25T22:36:31.889Z,2.27
2022-10-25T22:38:58.980Z,4.13
2022-10-25T22:41:27.250Z,8.83
2022-10-25T22:43:54.177Z,3.23
2022-10-25T22:46:25.170Z,2.03
2022-10-25T22:48:54.006Z,5.70
2022-10-25T22:51:21.921Z,3.70
2022-10-25T22:53:48.706Z,2.63
2022-10-25T22:56:18.131Z,3.67
2022-10-25T22:58:52.917Z,3.00
2022-10-25T23:01:23.192Z,3.53
2022-10-25T23:03:54.303Z,2.87
2022-10-25T23:06:23.973Z,3.20
2022-10-25T23:09:02.144Z,3.90
2022-10-25T23:11:31.519Z,3.00
2022-10-25T23:13:59.499Z,3.90
2022-10-25T23:16:27.829Z,2.43
2022-10-25T23:18:55.113Z,5.00
2022-10-25T23:21:24.330Z,2.83
2022-10-25T23:23:52.844Z,2.07
2022-10-25T23:26:22.597Z,4.13
2022-10-25T23:28:49.709Z,3.50
2022-10-25T23:31:16.859Z,3.23
2022-10-25T23:33:44.148Z,2.10
2022-10-25T23:36:16.696Z,2.97
2022-10-25T23:38:43.813Z,2.73
2022-10-25T23:41:10.618Z,2.40
2022-10-25T23:43:38.463Z,3.23
2022-10-25T23:46:05.854Z,2.43
2022-10-25T23:48:32.510Z,4.27
2022-10-25T23:53:38.955Z,3.50
2022-10-25T23:56:11.481Z,4.27
2022-10-25T23:58:38.718Z,4.10
